createdAt,value
2023-04-02T00:01:38.587Z,13.90
2023-04-02T00:04:23.448Z,13.60
2023-04-02T00:07:33.332Z,13.90
2023-04-02T00:10:00.212Z,13.60
2023-04-02T00:12:26.959Z,15.10
2023-04-02T00:15:04.831Z,14.20
2023-04-02T00:17:31.689Z,14.80
2023-04-02T00:20:06.669Z,15.20
2023-04-02T00:22:33.776Z,15.10
2023-04-02T00:25:07.315Z,13.30
2023-04-02T00:27:35.939Z,14.60
2023-04-02T00:30:03.833Z,15.30
2023-04-02T00:32:33.475Z,16.70
2023-04-02T00:35:01.686Z,15.00
2023-04-02T00:37:38.108Z,14.20
2023-04-02T00:40:09.425Z,14.90
2023-04-02T00:42:39.730Z,13.80
2023-04-02T00:45:18.232Z,14.80
2023-04-02T00:47:45.086Z,15.80
2023-04-02T00:50:11.843Z,15.30
2023-04-02T00:52:42.701Z,15.70
2023-04-02T00:55:22.768Z,16.40
2023-04-02T00:57:50.952Z,16.40
2023-04-02T01:00:30.220Z,16.40
2023-04-02T01:03:13.510Z,15.10
2023-04-02T01:05:42.043Z,14.70
2023-04-02T01:08:11.951Z,16.70
2023-04-02T01:10:50.926Z,15.90
2023-04-02T01:13:26.856Z,16.20
2023-04-02T01:16:19.399Z,16.00
2023-04-02T01:18:56.027Z,17.00
2023-04-02T01:21:37.499Z,17.00
2023-04-02T01:24:05.769Z,17.10
2023-04-02T01:26:40.337Z,15.90
2023-04-02T01:29:13.695Z,15.00
2023-04-02T01:31:41.936Z,14.80
2023-04-02T01:34:13.810Z,14.90
2023-04-02T01:36:44.457Z,14.30
2023-04-02T01:39:55.735Z,16.50
2023-04-02T01:43:01.961Z,16.10
2023-04-02T01:45:29.250Z,17.00
2023-04-02T01:47:56.328Z,16.80
2023-04-02T01:50:36.554Z,16.40
2023-04-02T01:53:08.016Z,15.70
2023-04-02T01:55:46.418Z,17.90
2023-04-02T01:58:19.339Z,18.10
2023-04-02T02:01:11.745Z,15.50
2023-04-02T02:03:42.151Z,15.80
2023-04-02T02:06:16.038Z,15.40
2023-04-02T02:09:03.433Z,14.70
2023-04-02T02:11:32.652Z,17.30
2023-04-02T02:14:01.635Z,17.70
2023-04-02T02:16:31.731Z,17.40
2023-04-02T02:19:04.288Z,16.60
2023-04-02T02:21:33.946Z,17.20
2023-04-02T02:24:04.348Z,17.20
2023-04-02T02:26:35.425Z,14.50
2023-04-02T02:29:06.529Z,14.50
2023-04-02T02:31:35.655Z,15.50
2023-04-02T02:34:08.593Z,13.90
2023-04-02T02:37:04.682Z,12.80
2023-04-02T02:39:45.263Z,12.10
2023-04-02T02:42:24.178Z,13.10
2023-04-02T02:44:54.035Z,12.30
2023-04-02T02:47:35.709Z,13.20
2023-04-02T02:50:07.506Z,11.90
2023-04-02T02:52:36.405Z,12.10
2023-04-02T02:55:21.474Z,12.40
2023-04-02T02:58:03.929Z,11.90
2023-04-02T03:00:37.178Z,12.60
2023-04-02T03:03:08.964Z,12.30
2023-04-02T03:05:38.673Z,12.30
2023-04-02T03:08:33.612Z,12.50
2023-04-02T03:11:22.751Z,14.10
2023-04-02T03:13:54.672Z,13.30
2023-04-02T03:16:33.980Z,14.50
2023-04-02T03:19:22.701Z,13.80
2023-04-02T03:22:18.645Z,14.00
2023-04-02T03:25:10.887Z,14.00
2023-04-02T03:27:42.728Z,13.30
2023-04-02T03:30:37.865Z,13.20
2023-04-02T03:33:43.819Z,12.20
2023-04-02T03:36:28.037Z,12.90
2023-04-02T03:39:00.742Z,13.00
2023-04-02T03:41:38.775Z,14.10
2023-04-02T03:44:18.564Z,14.40
2023-04-02T03:46:56.979Z,14.20
2023-04-02T03:49:43.952Z,13.60
2023-04-02T03:52:25.443Z,12.60
2023-04-02T03:55:09.827Z,13.70
2023-04-02T03:57:43.707Z,14.20
2023-04-02T04:00:26.805Z,14.30
2023-04-02T04:03:02.110Z,13.80
2023-04-02T04:05:37.298Z,13.50
2023-04-02T04:08:16.456Z,14.10
2023-04-02T04:10:43.789Z,14.10
2023-04-02T04:13:17.362Z,13.30
2023-04-02T04:15:53.556Z,13.40
2023-04-02T04:18:34.367Z,11.20
2023-04-02T04:21:36.581Z,12.10
2023-04-02T04:24:23.911Z,11.70
2023-04-02T04:27:09.643Z,12.30
2023-04-02T04:29:55.798Z,11.00
2023-04-02T04:32:34.181Z,10.80
2023-04-02T04:35:19.103Z,13.30
2023-04-02T04:37:49.425Z,13.10
2023-04-02T04:40:23.257Z,12.00
2023-04-02T04:42:54.481Z,13.20
2023-04-02T04:45:55.330Z,12.50
2023-04-02T04:48:36.439Z,12.80
2023-04-02T04:51:08.235Z,11.30
2023-04-02T04:53:47.015Z,11.80
2023-04-02T04:56:19.830Z,11.80
2023-04-02T04:59:04.729Z,12.80
2023-04-02T05:01:35.050Z,10.90
2023-04-02T05:04:35.888Z,11.30
2023-04-02T05:07:20.938Z,13.00
2023-04-02T05:10:19.243Z,11.20
2023-04-02T05:12:58.890Z,12.60
2023-04-02T05:15:41.650Z,14.40
2023-04-02T05:18:17.763Z,12.30
2023-04-02T05:21:11.777Z,13.90
2023-04-02T05:24:19.243Z,12.10
2023-04-02T05:26:49.794Z,12.60
2023-04-02T05:29:45.511Z,13.70
2023-04-02T05:32:25.471Z,12.00
2023-04-02T05:34:56.550Z,11.70
2023-04-02T05:37:27.244Z,11.40
2023-04-02T05:39:57.928Z,12.10
2023-04-02T05:42:30.420Z,12.00
2023-04-02T05:45:30.906Z,11.00
2023-04-02T05:48:02.314Z,13.60
2023-04-02T05:50:42.764Z,12.40
2023-04-02T05:53:25.158Z,13.70
2023-04-02T05:56:01.450Z,13.20
2023-04-02T05:58:46.801Z,13.50
2023-04-02T06:01:46.812Z,14.50
2023-04-02T06:04:21.051Z,13.70
2023-04-02T06:07:05.548Z,13.40
2023-04-02T06:12:14.583Z,14.40
2023-04-02T06:14:41.881Z,16.10
2023-04-02T06:17:18.370Z,14.90
2023-04-02T06:19:47.345Z,14.90
2023-04-02T06:22:27.024Z,13.60
2023-04-02T06:25:06.188Z,16.00
2023-04-02T06:27:41.599Z,16.20
2023-04-02T06:30:18.907Z,14.60
2023-04-02T06:32:48.775Z,15.20
2023-04-02T06:35:16.564Z,13.20
2023-04-02T06:37:49.264Z,14.60
2023-04-02T06:40:38.569Z,12.90
2023-04-02T06:43:32.663Z,15.20
2023-04-02T06:46:35.508Z,15.60
2023-04-02T06:49:21.451Z,15.50
2023-04-02T06:51:53.776Z,14.00
2023-04-02T06:54:21.732Z,14.10
2023-04-02T06:56:55.909Z,14.00
2023-04-02T06:59:30.917Z,14.50
2023-04-02T07:02:06.981Z,33.90
2023-04-02T07:04:34.291Z,28.40
2023-04-02T07:07:02.072Z,14.50
2023-04-02T07:09:32.572Z,16.60
2023-04-02T07:12:01.911Z,15.30
2023-04-02T07:14:29.785Z,13.10
2023-04-02T07:16:56.689Z,12.90
2023-04-02T07:19:23.938Z,11.00
2023-04-02T07:21:55.421Z,13.00
2023-04-02T07:24:23.816Z,12.10
2023-04-02T07:26:50.894Z,12.70
2023-04-02T07:29:17.937Z,12.20
2023-04-02T07:31:45.194Z,13.20
2023-04-02T07:34:12.022Z,11.20
2023-04-02T07:36:38.864Z,14.20
2023-04-02T07:39:05.998Z,13.80
2023-04-02T07:41:33.117Z,16.30
2023-04-02T07:44:00.181Z,15.80
2023-04-02T07:46:27.170Z,15.20
2023-04-02T07:48:54.012Z,18.00
2023-04-02T07:51:24.033Z,17.40
2023-04-02T07:53:55.046Z,20.60
2023-04-02T07:56:24.416Z,20.30
2023-04-02T07:58:51.798Z,19.60
2023-04-02T08:01:25.123Z,20.40
2023-04-02T08:03:54.761Z,18.40
2023-04-02T08:06:22.699Z,21.40
2023-04-02T08:08:50.214Z,21.20
2023-04-02T08:11:17.491Z,20.10
2023-04-02T08:13:44.563Z,21.40
2023-04-02T08:16:11.682Z,22.50
2023-04-02T08:18:39.136Z,21.90
2023-04-02T08:21:08.411Z,22.40
2023-04-02T08:23:37.030Z,27.10
2023-04-02T08:26:06.139Z,22.60
2023-04-02T08:28:33.775Z,22.20
2023-04-02T08:31:01.588Z,21.90
2023-04-02T08:33:28.520Z,20.30
2023-04-02T08:35:55.753Z,22.90
2023-04-02T08:38:23.018Z,23.20
2023-04-02T08:40:54.061Z,21.40
2023-04-02T08:43:40.217Z,22.50
2023-04-02T08:46:54.377Z,23.00
2023-04-02T08:49:35.894Z,22.70
2023-04-02T08:52:03.804Z,18.90
2023-04-02T08:54:37.473Z,19.60
2023-04-02T08:57:04.588Z,23.10
2023-04-02T08:59:35.501Z,24.20
2023-04-02T09:02:25.485Z,25.80
2023-04-02T09:04:52.748Z,26.80
2023-04-02T09:07:33.129Z,31.50
2023-04-02T09:10:00.542Z,22.70
2023-04-02T09:12:31.200Z,21.30
2023-04-02T09:15:10.651Z,25.10
2023-04-02T09:17:50.722Z,17.70
2023-04-02T09:20:28.837Z,19.10
2023-04-02T09:22:56.864Z,17.60
2023-04-02T09:25:30.881Z,19.30
2023-04-02T09:28:01.421Z,18.40
2023-04-02T09:30:31.268Z,17.90
2023-04-02T09:33:08.566Z,18.40
2023-04-02T09:35:55.137Z,17.10
2023-04-02T09:38:27.770Z,16.00
2023-04-02T09:40:54.809Z,16.90
2023-04-02T09:43:29.471Z,15.10
2023-04-02T09:46:17.335Z,16.60
2023-04-02T09:48:48.583Z,16.90
2023-04-02T09:51:20.898Z,14.80
2023-04-02T09:53:50.295Z,14.60
2023-04-02T09:56:21.261Z,15.60
2023-04-02T09:59:17.485Z,14.30
2023-04-02T10:01:58.224Z,15.50
2023-04-02T10:04:46.442Z,12.50
2023-04-02T10:07:36.314Z,14.30
2023-04-02T10:10:29.048Z,13.20
2023-04-02T10:13:17.146Z,12.90
2023-04-02T10:15:47.077Z,14.20
2023-04-02T10:18:41.118Z,12.80
2023-04-02T10:21:11.708Z,12.40
2023-04-02T10:23:38.897Z,14.50
2023-04-02T10:26:11.531Z,13.10
2023-04-02T10:29:00.095Z,13.70
2023-04-02T10:31:52.773Z,13.40
2023-04-02T10:34:33.661Z,13.00
2023-04-02T10:37:33.249Z,13.50
2023-04-02T10:40:09.949Z,13.60
2023-04-02T10:42:58.745Z,14.10
2023-04-02T10:45:50.307Z,15.30
2023-04-02T10:48:17.145Z,13.80
2023-04-02T10:51:09.962Z,13.60
2023-04-02T10:53:43.580Z,12.90
2023-04-02T10:56:12.266Z,13.70
2023-04-02T10:58:52.397Z,11.80
2023-04-02T11:01:25.573Z,13.60
2023-04-02T11:03:59.437Z,14.80
2023-04-02T11:06:31.862Z,13.00
2023-04-02T11:09:04.450Z,14.20
2023-04-02T11:11:39.713Z,12.30
2023-04-02T11:14:18.502Z,11.30
2023-04-02T11:16:48.911Z,13.00
2023-04-02T11:19:15.969Z,12.10
2023-04-02T11:21:58.713Z,11.20
2023-04-02T11:24:29.895Z,10.90
2023-04-02T11:27:20.200Z,12.50
2023-04-02T11:30:15.717Z,11.90
2023-04-02T11:32:46.905Z,11.40
2023-04-02T11:35:32.466Z,11.30
2023-04-02T11:38:09.719Z,11.00
2023-04-02T11:40:57.691Z,9.30
2023-04-02T11:43:33.879Z,10.30
2023-04-02T11:46:01.983Z,10.40
2023-04-02T11:48:31.036Z,10.10
2023-04-02T11:50:58.176Z,10.00
2023-04-02T11:53:33.942Z,10.50
2023-04-02T11:56:20.830Z,9.50
2023-04-02T11:58:59.778Z,9.50
2023-04-02T12:01:32.352Z,8.90
2023-04-02T12:04:28.040Z,9.00
2023-04-02T12:06:54.766Z,9.30
2023-04-02T12:09:28.165Z,8.20
2023-04-02T12:11:59.343Z,8.20
2023-04-02T12:14:48.075Z,8.70
2023-04-02T12:17:23.686Z,9.50
2023-04-02T12:19:54.897Z,8.00
2023-04-02T12:22:27.976Z,8.10
2023-04-02T12:24:59.243Z,9.20
2023-04-02T12:27:28.976Z,8.30
2023-04-02T12:30:12.053Z,8.10
2023-04-02T12:32:38.971Z,9.80
2023-04-02T12:35:07.774Z,9.30
2023-04-02T12:37:34.834Z,9.10
2023-04-02T12:40:15.659Z,8.30
2023-04-02T12:42:42.460Z,8.80
2023-04-02T12:45:29.617Z,7.70
2023-04-02T12:47:57.734Z,7.10
2023-04-02T12:50:24.977Z,7.40
2023-04-02T12:52:55.204Z,7.80
2023-04-02T12:55:24.470Z,7.20
2023-04-02T12:57:56.403Z,6.90
2023-04-02T13:00:24.437Z,7.80
2023-04-02T13:03:13.074Z,7.00
2023-04-02T13:05:46.325Z,6.90
2023-04-02T13:08:24.027Z,6.70
2023-04-02T13:10:57.433Z,7.10
2023-04-02T13:13:32.890Z,6.60
2023-04-02T13:16:07.208Z,7.40
2023-04-02T13:18:37.224Z,6.20
2023-04-02T13:21:27.739Z,5.00
2023-04-02T13:23:55.579Z,5.50
2023-04-02T13:26:25.797Z,6.10
2023-04-02T13:29:08.927Z,5.70
2023-04-02T13:31:35.772Z,5.50
2023-04-02T13:34:02.614Z,5.50
2023-04-02T13:36:30.220Z,4.80
2023-04-02T13:38:57.093Z,5.20
2023-04-02T13:41:27.373Z,5.50
2023-04-02T13:43:57.523Z,6.80
2023-04-02T13:46:27.505Z,7.40
2023-04-02T13:48:55.693Z,7.50
2023-04-02T13:51:33.877Z,8.10
2023-04-02T13:54:00.720Z,8.10
2023-04-02T13:56:28.268Z,9.70
2023-04-02T13:58:55.181Z,10.40
2023-04-02T14:01:23.636Z,8.20
2023-04-02T14:03:51.310Z,7.40
2023-04-02T14:06:51.527Z,7.40
2023-04-02T14:09:55.444Z,7.90
2023-04-02T14:12:44.018Z,8.20
2023-04-02T14:15:19.555Z,8.30
2023-04-02T14:18:16.146Z,8.10
2023-04-02T14:21:04.028Z,8.30
2023-04-02T14:23:49.240Z,8.50
2023-04-02T14:26:21.780Z,9.40
2023-04-02T14:29:18.902Z,10.90
2023-04-02T14:31:59.496Z,10.60
2023-04-02T14:34:32.166Z,11.40
2023-04-02T14:37:17.297Z,11.10
2023-04-02T14:40:17.784Z,10.70
2023-04-02T14:43:16.798Z,10.70
2023-04-02T14:45:58.142Z,10.50
2023-04-02T14:48:47.342Z,21.30
2023-04-02T14:51:23.323Z,46.70
2023-04-02T14:54:14.615Z,14.10
2023-04-02T14:56:57.985Z,36.10
2023-04-02T14:59:27.970Z,15.80
2023-04-02T15:02:23.844Z,12.80
2023-04-02T15:04:59.592Z,13.20
2023-04-02T15:07:39.241Z,15.70
2023-04-02T15:10:10.985Z,27.00
2023-04-02T15:12:40.558Z,18.30
2023-04-02T15:15:24.382Z,18.70
2023-04-02T15:17:58.514Z,16.60
2023-04-02T15:20:33.809Z,11.10
2023-04-02T15:23:05.150Z,12.20
2023-04-02T15:25:55.359Z,11.80
2023-04-02T15:28:29.145Z,9.50
2023-04-02T15:31:03.177Z,11.40
2023-04-02T15:36:21.014Z,8.70
2023-04-02T15:38:56.199Z,12.30
2023-04-02T15:41:31.685Z,9.80
2023-04-02T15:44:16.522Z,12.20
2023-04-02T15:46:50.206Z,13.20
2023-04-02T15:49:39.125Z,10.40
2023-04-02T15:52:20.183Z,11.10
2023-04-02T15:55:21.971Z,9.00
2023-04-02T15:58:13.931Z,9.50
2023-04-02T16:00:51.622Z,8.90
2023-04-02T16:03:33.480Z,10.50
2023-04-02T16:06:52.819Z,13.60
2023-04-02T16:09:51.801Z,12.40
2023-04-02T16:12:20.794Z,12.20
2023-04-02T16:14:49.546Z,12.90
2023-04-02T16:17:25.406Z,9.00
2023-04-02T16:19:56.498Z,8.50
2023-04-02T16:22:29.945Z,9.80
2023-04-02T16:25:18.840Z,10.70
2023-04-02T16:28:04.048Z,13.20
2023-04-02T16:30:56.136Z,16.50
2023-04-02T16:33:29.608Z,9.50
2023-04-02T16:36:05.856Z,8.60
2023-04-02T16:38:45.262Z,8.50
2023-04-02T16:41:15.656Z,8.30
2023-04-02T16:43:55.099Z,7.50
2023-04-02T16:46:40.338Z,8.20
2023-04-02T16:49:16.475Z,8.30
2023-04-02T16:51:56.250Z,8.90
2023-04-02T16:54:47.982Z,7.10
2023-04-02T16:57:30.715Z,9.10
2023-04-02T17:00:37.352Z,8.20
2023-04-02T17:03:39.890Z,6.80
2023-04-02T17:06:31.575Z,7.80
2023-04-02T17:09:23.237Z,7.70
2023-04-02T17:12:03.703Z,7.20
2023-04-02T17:14:38.399Z,8.50
2023-04-02T17:17:05.495Z,8.50
2023-04-02T17:19:32.613Z,7.90
2023-04-02T17:22:02.767Z,8.10
2023-04-02T17:24:35.355Z,8.20
2023-04-02T17:27:27.640Z,7.80
2023-04-02T17:30:25.628Z,7.10
2023-04-02T17:32:52.626Z,7.20
2023-04-02T17:35:27.599Z,7.10
2023-04-02T17:38:09.477Z,7.70
2023-04-02T17:40:42.113Z,8.10
2023-04-02T17:43:30.850Z,8.50
2023-04-02T17:46:09.063Z,8.30
2023-04-02T17:48:46.306Z,7.70
2023-04-02T17:51:16.148Z,8.40
2023-04-02T17:54:17.684Z,8.40
2023-04-02T17:57:05.721Z,9.40
2023-04-02T18:00:03.854Z,9.40
2023-04-02T18:02:48.084Z,9.40
2023-04-02T18:05:31.641Z,11.50
2023-04-02T18:08:33.657Z,12.00
2023-04-02T18:11:21.315Z,10.30
2023-04-02T18:13:51.080Z,12.10
2023-04-02T18:16:39.580Z,12.60
2023-04-02T18:19:16.924Z,12.60
2023-04-02T18:21:52.806Z,11.60
2023-04-02T18:24:37.626Z,12.60
2023-04-02T18:27:23.710Z,13.30
2023-04-02T18:30:08.953Z,13.10
2023-04-02T18:33:02.020Z,11.10
2023-04-02T18:35:56.177Z,10.40
2023-04-02T18:39:01.922Z,10.50
2023-04-02T18:41:34.741Z,10.90
2023-04-02T18:44:20.360Z,10.40
2023-04-02T18:46:53.822Z,11.70
2023-04-02T18:49:39.935Z,11.70
2023-04-02T18:52:15.956Z,12.80
2023-04-02T18:54:48.356Z,12.20
2023-04-02T18:57:23.410Z,13.10
2023-04-02T19:00:09.200Z,12.70
2023-04-02T19:02:46.807Z,11.40
2023-04-02T19:05:24.241Z,11.70
2023-04-02T19:08:01.980Z,11.20
2023-04-02T19:10:33.260Z,10.20
2023-04-02T19:13:00.988Z,12.10
2023-04-02T19:15:47.723Z,10.70
2023-04-02T19:18:35.509Z,11.20
2023-04-02T19:21:43.105Z,12.30
2023-04-02T19:24:10.756Z,9.50
2023-04-02T19:27:02.760Z,9.50
2023-04-02T19:29:35.715Z,8.50
2023-04-02T19:32:27.857Z,7.90
2023-04-02T19:35:17.697Z,8.00
2023-04-02T19:38:08.332Z,7.40
2023-04-02T19:40:51.213Z,6.60
2023-04-02T19:43:18.324Z,6.50
2023-04-02T19:45:48.610Z,7.10
2023-04-02T19:48:18.750Z,7.50
2023-04-02T19:50:47.332Z,7.00
2023-04-02T19:53:15.148Z,8.00
2023-04-02T19:55:43.043Z,8.10
2023-04-02T19:58:36.289Z,6.90
2023-04-02T20:01:03.673Z,5.70
2023-04-02T20:03:31.029Z,6.70
2023-04-02T20:05:59.114Z,6.10
2023-04-02T20:08:27.487Z,6.70
2023-04-02T20:10:55.476Z,7.30
2023-04-02T20:13:22.373Z,6.50
2023-04-02T20:15:50.990Z,7.70
2023-04-02T20:18:19.787Z,7.10
2023-04-02T20:20:48.182Z,7.30
2023-04-02T20:23:19.554Z,7.30
2023-04-02T20:25:47.773Z,6.70
2023-04-02T20:28:14.594Z,6.30
2023-04-02T20:30:41.637Z,7.30
2023-04-02T20:33:08.749Z,7.00
2023-04-02T20:35:37.284Z,6.40
2023-04-02T20:38:06.211Z,7.00
2023-04-02T20:40:33.453Z,6.70
2023-04-02T20:43:00.414Z,6.30
2023-04-02T20:45:28.856Z,7.10
2023-04-02T20:47:56.180Z,6.70
2023-04-02T20:50:24.199Z,7.60
2023-04-02T20:52:51.759Z,6.20
2023-04-02T20:55:18.722Z,5.30
2023-04-02T20:57:46.101Z,6.30
2023-04-02T21:00:14.200Z,5.80
2023-04-02T21:02:41.306Z,5.50
2023-04-02T21:05:08.634Z,6.70
2023-04-02T21:07:35.523Z,5.90
2023-04-02T21:10:02.386Z,6.30
2023-04-02T21:12:30.710Z,6.30
2023-04-02T21:14:59.734Z,6.30
2023-04-02T21:17:28.826Z,6.20
2023-04-02T21:19:55.614Z,6.00
2023-04-02T21:22:22.763Z,5.10
2023-04-02T21:24:49.782Z,5.30
2023-04-02T21:27:16.919Z,5.70
2023-04-02T21:29:43.746Z,6.50
2023-04-02T21:32:20.697Z,6.50
2023-04-02T21:34:48.486Z,6.00
2023-04-02T21:37:15.222Z,6.60
2023-04-02T21:39:42.096Z,6.40
2023-04-02T21:42:10.598Z,5.50
2023-04-02T21:44:37.341Z,6.20
2023-04-02T21:47:04.148Z,5.90
2023-04-02T21:49:30.963Z,5.80
2023-04-02T21:51:57.789Z,5.90
2023-04-02T21:54:25.264Z,5.70
2023-04-02T21:56:52.799Z,5.70
2023-04-02T21:59:20.112Z,5.30
2023-04-02T22:01:49.418Z,6.30
2023-04-02T22:04:19.406Z,5.30
2023-04-02T22:06:47.208Z,5.60
2023-04-02T22:09:17.177Z,3.90
2023-04-02T22:11:46.735Z,4.10
2023-04-02T22:14:14.451Z,4.20
2023-04-02T22:16:41.893Z,4.30
2023-04-02T22:19:13.946Z,3.80
2023-04-02T22:21:42.045Z,4.00
2023-04-02T22:24:13.060Z,4.00
2023-04-02T22:26:40.866Z,4.60
2023-04-02T22:29:08.039Z,4.00
2023-04-02T22:31:35.569Z,3.80
2023-04-02T22:34:05.053Z,3.70
2023-04-02T22:36:33.420Z,4.10
2023-04-02T22:39:04.495Z,4.20
2023-04-02T22:41:31.607Z,3.40
2023-04-02T22:44:00.780Z,4.30
2023-04-02T22:46:28.947Z,4.30
2023-04-02T22:48:56.580Z,4.50
2023-04-02T22:51:24.870Z,5.10
2023-04-02T22:53:53.675Z,4.80
2023-04-02T22:56:27.136Z,4.60
2023-04-02T22:58:53.943Z,4.60
2023-04-02T23:01:23.848Z,4.80
2023-04-02T23:03:53.587Z,4.50
2023-04-02T23:06:20.802Z,4.90
2023-04-02T23:08:47.678Z,4.10
2023-04-02T23:11:26.837Z,3.70
2023-04-02T23:13:56.171Z,4.50
2023-04-02T23:16:26.188Z,4.30
2023-04-02T23:18:53.748Z,4.30
2023-04-02T23:21:21.552Z,4.10
2023-04-02T23:23:48.637Z,4.50
2023-04-02T23:26:17.169Z,4.10
2023-04-02T23:28:44.264Z,4.50
2023-04-02T23:31:13.991Z,4.00
2023-04-02T23:33:41.110Z,3.50
2023-04-02T23:36:24.968Z,5.30
2023-04-02T23:38:54.896Z,5.20
2023-04-02T23:41:23.736Z,4.60
2023-04-02T23:43:51.068Z,4.10
2023-04-02T23:46:18.607Z,4.50
2023-04-02T23:48:46.303Z,4.90
2023-04-02T23:51:13.463Z,4.80
2023-04-02T23:53:40.713Z,5.80
2023-04-02T23:56:07.559Z,5.40
2023-04-02T23:58:34.799Z,5.80
